createdAt,value
2019-05-01T00:01:09.999Z,23.50
2019-05-01T00:06:17.212Z,22.97
2019-05-01T00:11:20.757Z,24.40
2019-05-01T00:16:24.070Z,24.47
2019-05-01T00:21:27.533Z,25.07
2019-05-01T00:26:31.108Z,23.87
2019-05-01T00:31:34.662Z,23.90
2019-05-01T00:36:38.217Z,24.43
2019-05-01T00:41:41.763Z,24.67
2019-05-01T00:46:45.902Z,26.13
2019-05-01T00:51:49.209Z,24.70
2019-05-01T00:56:57.039Z,24.90
2019-05-01T01:02:18.350Z,24.70
2019-05-01T01:07:21.707Z,24.33
2019-05-01T01:12:25.011Z,25.53
2019-05-01T01:17:29.022Z,24.40
2019-05-01T01:22:32.578Z,24.97
2019-05-01T01:27:36.206Z,24.77
2019-05-01T01:32:39.801Z,24.70
2019-05-01T01:37:43.801Z,25.10
2019-05-01T01:42:48.945Z,24.10
2019-05-01T01:48:11.711Z,23.37
2019-05-01T01:53:17.314Z,24.83
2019-05-01T01:58:21.431Z,24.83
2019-05-01T02:03:26.602Z,26.03
2019-05-01T02:08:29.974Z,24.47
2019-05-01T02:13:33.521Z,25.40
2019-05-01T02:18:36.899Z,26.77
2019-05-01T02:23:40.209Z,26.87
2019-05-01T02:28:48.038Z,24.27
2019-05-01T02:33:52.773Z,27.50
2019-05-01T02:38:57.829Z,26.00
2019-05-01T02:44:06.937Z,26.77
2019-05-01T02:49:25.133Z,26.67
2019-05-01T02:54:28.685Z,25.80
2019-05-01T02:59:33.043Z,27.93
2019-05-01T03:04:36.645Z,25.87
2019-05-01T03:09:40.108Z,27.07
2019-05-01T03:14:45.110Z,27.33
2019-05-01T03:19:50.093Z,28.00
2019-05-01T03:24:53.702Z,26.90
2019-05-01T03:29:56.986Z,28.50
2019-05-01T03:35:00.508Z,29.23
2019-05-01T03:40:05.374Z,28.63
2019-05-01T03:45:09.035Z,28.77
2019-05-01T03:50:14.132Z,29.37
2019-05-01T03:55:17.750Z,28.80
2019-05-01T04:00:23.093Z,29.87
2019-05-01T04:05:26.482Z,30.20
2019-05-01T04:10:29.940Z,29.87
2019-05-01T04:15:33.411Z,28.90
2019-05-01T04:20:37.059Z,32.47
2019-05-01T04:25:40.344Z,29.07
2019-05-01T04:31:00.358Z,29.10
2019-05-01T04:36:11.840Z,32.10
2019-05-01T04:41:15.405Z,31.17
2019-05-01T04:46:18.815Z,32.07
2019-05-01T04:51:22.818Z,33.13
2019-05-01T04:56:26.494Z,30.53
2019-05-01T05:01:31.644Z,32.80
2019-05-01T05:06:34.945Z,32.23
2019-05-01T05:11:55.016Z,32.97
2019-05-01T05:17:08.445Z,32.10
2019-05-01T05:22:12.050Z,32.10
2019-05-01T05:27:16.312Z,32.10
2019-05-01T05:32:21.375Z,32.57
2019-05-01T05:37:35.104Z,29.13
2019-05-01T05:42:38.389Z,32.07
2019-05-01T05:47:41.921Z,30.73
2019-05-01T05:52:48.906Z,28.97
2019-05-01T05:57:57.549Z,30.60
2019-05-01T06:03:30.910Z,32.53
2019-05-01T06:08:29.627Z,32.50
2019-05-01T06:13:40.446Z,32.13
2019-05-01T06:18:45.681Z,33.53
2019-05-01T06:23:52.695Z,33.10
2019-05-01T06:29:00.738Z,34.30
2019-05-01T06:34:04.357Z,33.23
2019-05-01T06:39:11.755Z,33.43
2019-05-01T06:44:22.149Z,33.53
2019-05-01T06:49:42.154Z,35.63
2019-05-01T06:54:47.868Z,33.83
2019-05-01T06:59:50.934Z,30.37
2019-05-01T07:04:54.472Z,29.10
2019-05-01T07:09:58.956Z,36.20
2019-05-01T07:15:03.637Z,34.33
2019-05-01T07:20:11.800Z,33.33
2019-05-01T07:25:16.077Z,32.67
2019-05-01T07:30:41.593Z,32.10
2019-05-01T07:35:48.233Z,34.73
2019-05-01T07:40:51.589Z,32.40
2019-05-01T07:45:56.801Z,32.63
2019-05-01T07:51:06.848Z,32.27
2019-05-01T07:56:07.935Z,32.57
2019-05-01T08:01:20.070Z,33.27
2019-05-01T08:06:23.375Z,33.63
2019-05-01T08:11:26.677Z,31.13
2019-05-01T08:16:37.770Z,30.53
2019-05-01T08:21:46.785Z,32.77
2019-05-01T08:26:50.115Z,30.47
2019-05-01T08:31:58.863Z,30.27
2019-05-01T08:37:00.273Z,28.13
2019-05-01T08:42:07.031Z,25.93
2019-05-01T08:47:27.554Z,27.00
2019-05-01T08:52:30.604Z,28.30
2019-05-01T08:57:37.034Z,28.10
2019-05-01T09:02:41.737Z,27.67
2019-05-01T09:07:44.352Z,27.20
2019-05-01T09:12:48.780Z,28.93
2019-05-01T09:17:52.967Z,27.63
2019-05-01T09:22:59.436Z,28.40
2019-05-01T09:28:07.438Z,27.97
2019-05-01T09:33:10.737Z,28.27
2019-05-01T09:38:14.112Z,30.80
2019-05-01T09:43:17.427Z,28.40
2019-05-01T09:48:21.537Z,29.70
2019-05-01T09:53:29.859Z,30.90
2019-05-01T09:58:34.750Z,30.30
2019-05-01T10:03:38.372Z,32.70
2019-05-01T10:08:41.989Z,35.10
2019-05-01T10:13:59.724Z,37.13
2019-05-01T10:19:03.387Z,42.73
2019-05-01T10:24:07.030Z,36.67
2019-05-01T10:29:13.278Z,38.47
2019-05-01T10:34:18.437Z,38.27
2019-05-01T10:39:23.752Z,38.30
2019-05-01T10:44:27.456Z,34.33
2019-05-01T10:49:32.927Z,38.90
2019-05-01T10:54:38.881Z,38.70
2019-05-01T10:59:41.600Z,38.03
2019-05-01T11:04:44.906Z,39.93
2019-05-01T11:09:48.226Z,42.03
2019-05-01T11:14:51.596Z,43.43
2019-05-01T11:19:55.250Z,45.30
2019-05-01T11:24:58.621Z,47.43
2019-05-01T11:30:02.166Z,49.27
2019-05-01T11:35:24.793Z,41.90
2019-05-01T11:40:35.819Z,43.50
2019-05-01T11:45:39.454Z,43.47
2019-05-01T11:50:42.925Z,45.97
2019-05-01T11:55:49.207Z,41.63
2019-05-01T12:00:54.178Z,46.10
2019-05-01T12:05:57.831Z,46.47
2019-05-01T12:11:03.836Z,46.23
2019-05-01T12:16:11.750Z,44.33
2019-05-01T12:21:15.126Z,43.17
2019-05-01T12:26:18.553Z,46.70
2019-05-01T12:31:22.171Z,46.77
2019-05-01T12:36:35.607Z,49.53
2019-05-01T12:41:32.704Z,49.33
2019-05-01T12:46:53.813Z,50.70
2019-05-01T12:52:09.770Z,50.83
2019-05-01T12:57:04.303Z,49.87
2019-05-01T13:02:07.899Z,48.97
2019-05-01T13:07:11.732Z,53.40
2019-05-01T13:12:15.046Z,53.63
2019-05-01T13:17:18.376Z,54.27
2019-05-01T13:22:22.188Z,53.50
2019-05-01T13:27:29.813Z,51.63
2019-05-01T13:32:37.851Z,56.73
2019-05-01T13:37:41.190Z,54.47
2019-05-01T13:42:44.831Z,51.23
2019-05-01T13:47:48.507Z,52.60
2019-05-01T13:52:53.484Z,52.27
2019-05-01T13:57:56.981Z,51.23
2019-05-01T14:03:00.569Z,52.40
2019-05-01T14:08:05.179Z,53.00
2019-05-01T14:13:08.494Z,53.63
2019-05-01T14:18:13.803Z,47.40
2019-05-01T14:23:24.550Z,48.97
2019-05-01T14:28:28.201Z,46.67
2019-05-01T14:33:31.741Z,48.53
2019-05-01T14:38:35.216Z,48.10
2019-05-01T14:43:39.284Z,45.37
2019-05-01T14:48:42.576Z,47.03
2019-05-01T14:53:45.927Z,46.23
2019-05-01T14:58:49.232Z,48.50
2019-05-01T15:03:53.064Z,47.77
2019-05-01T15:08:56.687Z,49.67
2019-05-01T15:14:16.837Z,48.67
2019-05-01T15:19:22.081Z,49.20
2019-05-01T15:24:25.673Z,47.93
2019-05-01T15:29:29.310Z,44.77
2019-05-01T15:34:33.072Z,42.30
2019-05-01T15:39:38.241Z,44.77
2019-05-01T15:44:43.650Z,47.77
2019-05-01T15:49:46.899Z,47.53
2019-05-01T15:54:50.209Z,51.20
2019-05-01T15:59:55.963Z,51.23
2019-05-01T16:04:59.373Z,51.80
2019-05-01T16:10:05.832Z,50.50
2019-05-01T16:15:29.115Z,51.93
2019-05-01T16:20:32.437Z,48.80
2019-05-01T16:25:35.977Z,49.87
2019-05-01T16:30:39.616Z,48.23
2019-05-01T16:35:43.406Z,47.40
2019-05-01T16:41:03.508Z,43.30
2019-05-01T16:46:07.118Z,42.20
2019-05-01T16:51:10.601Z,43.43
2019-05-01T16:56:14.572Z,40.20
2019-05-01T17:01:28.781Z,41.93
2019-05-01T17:06:37.759Z,39.07
2019-05-01T17:11:41.300Z,39.07
2019-05-01T17:16:44.617Z,38.37
2019-05-01T17:21:47.913Z,39.70
2019-05-01T17:26:51.476Z,39.13
2019-05-01T17:31:54.833Z,39.67
2019-05-01T17:37:01.477Z,38.97
2019-05-01T17:42:05.212Z,37.03
2019-05-01T17:47:36.782Z,36.70
2019-05-01T17:52:42.068Z,35.23
2019-05-01T17:57:46.777Z,34.00
2019-05-01T18:02:51.880Z,34.33
2019-05-01T18:08:09.636Z,34.37
2019-05-01T18:13:18.003Z,36.50
2019-05-01T18:18:21.803Z,33.30
2019-05-01T18:23:49.590Z,34.17
2019-05-01T18:29:18.433Z,35.57
2019-05-01T18:34:38.230Z,35.57
2019-05-01T18:39:44.531Z,35.40
2019-05-01T18:45:05.068Z,33.87
2019-05-01T18:50:08.763Z,34.80
2019-05-01T18:55:12.216Z,33.43
2019-05-01T19:00:15.568Z,34.53
2019-05-01T19:05:19.106Z,35.93
2019-05-01T19:10:25.311Z,36.40
2019-05-01T19:15:28.609Z,33.37
2019-05-01T19:20:31.919Z,34.03
2019-05-01T19:25:35.464Z,37.33
2019-05-01T19:30:38.842Z,35.07
2019-05-01T19:35:42.449Z,35.13
2019-05-01T19:40:45.766Z,35.07
2019-05-01T19:45:49.068Z,36.67
2019-05-01T19:50:52.366Z,35.03
2019-05-01T19:55:55.725Z,37.00
2019-05-01T20:00:59.597Z,36.50
2019-05-01T20:06:05.615Z,37.40
2019-05-01T20:11:09.645Z,38.77
2019-05-01T20:16:13.627Z,39.87
2019-05-01T20:21:17.270Z,40.07
2019-05-01T20:26:20.647Z,40.83
2019-05-01T20:31:27.627Z,41.97
2019-05-01T20:36:30.499Z,42.13
2019-05-01T20:41:34.050Z,40.73
2019-05-01T20:46:37.524Z,41.40
2019-05-01T20:51:40.819Z,39.43
2019-05-01T20:56:51.204Z,42.50
2019-05-01T21:01:59.697Z,41.17
2019-05-01T21:07:15.519Z,38.90
2019-05-01T21:12:16.060Z,42.83
2019-05-01T21:17:19.383Z,43.07
2019-05-01T21:22:23.428Z,42.27
2019-05-01T21:27:28.385Z,42.57
2019-05-01T21:32:33.950Z,41.83
2019-05-01T21:37:37.337Z,44.53
2019-05-01T21:42:47.301Z,43.83
2019-05-01T21:47:49.070Z,40.93
2019-05-01T21:52:58.131Z,40.70
2019-05-01T21:57:59.607Z,40.93
2019-05-01T22:03:02.906Z,41.77
2019-05-01T22:08:06.278Z,38.73
2019-05-01T22:13:09.909Z,39.60
2019-05-01T22:18:17.932Z,39.83
2019-05-01T22:23:25.279Z,38.90
2019-05-01T22:28:33.149Z,37.97
2019-05-01T22:33:37.111Z,35.77
2019-05-01T22:38:40.482Z,37.57
2019-05-01T22:43:43.758Z,35.23
2019-05-01T22:48:47.362Z,34.57
2019-05-01T22:53:52.287Z,32.83
2019-05-01T22:58:55.601Z,33.53
2019-05-01T23:04:00.533Z,34.03
2019-05-01T23:09:06.167Z,32.30
2019-05-01T23:14:09.713Z,30.07
2019-05-01T23:19:13.257Z,32.23
2019-05-01T23:24:16.542Z,31.40
2019-05-01T23:29:21.717Z,33.03
2019-05-01T23:34:26.174Z,33.43
2019-05-01T23:39:39.607Z,34.10
2019-05-01T23:44:38.229Z,32.43
2019-05-01T23:49:40.929Z,32.77
2019-05-01T23:54:44.478Z,32.93
2019-05-01T23:59:48.040Z,29.10
